Historique des mesures à Cassis (13260), France
Quotidien Résumé Mai 25, 2018 Unités:  Métrique    US   Métrique/US
« Précédent (Jour)
Suivant (Jour) »
Quotidien Hebdomadaire Mensuel Annuel Période au choix
  Maximum: Minimum: Moyenne:
Température: TemperatureC °C 17.2 °C 20.6 °C
Point de rosée: DewpointC °C 11.1 °C 14.7 °C
Humidité: Humidity % 63 % 66 %
Vitesse du vent: 0 km/h 0 km/h 3.2 km/h
Rafales: 0 km/h - -
Vent:- - South
Pression: PressurehPa hPa 1010.7 hPa -
Précipitations: 0.0 mm    
Historical Graphs
 
 
Mesures pour : Mai 25, 2018
Heure Temperature Point de rosée Pression Vent Vitesse du vent Rafales Humidité Pluie (par heure) Conditions
TemperatureC °C DewpointC °C PressurehPa hPa Calm     Humidity % HourlyPrecipMM mm SoftwareType W/m2
00:10 17.9 °C 13.0 °C 1013.8 hPa Calm   4.2 km/h 73 % 0.0 mm open2300-1.11 W/m2
01:10 17.6 °C 12.3 °C 1013.8 hPa NW 9.8 km/h 9.8 km/h 71 % 0.0 mm open2300-1.11 W/m2
02:10 17.5 °C 12.2 °C 1013.4 hPa Calm     71 % 0.0 mm open2300-1.11 W/m2
03:10 17.5 °C 12.4 °C 1012.8 hPa NE 4.2 km/h 8 km/h 72 % 0.0 mm open2300-1.11 W/m2
04:10 17.2 °C 11.9 °C 1012.1 hPa NW 6.4 km/h 7.6 km/h 71 % 0.0 mm open2300-1.11 W/m2
05:11 17.6 °C 11.4 °C 1012.4 hPa NNW 6.9 km/h 8 km/h 67 % 0.0 mm open2300-1.11 W/m2
06:11 17.3 °C 11.1 °C 1012.1 hPa North 4.2 km/h 4.2 km/h 67 % 0.0 mm open2300-1.11 W/m2
07:11 17.9 °C 11.9 °C 1012.8 hPa SE 2.9 km/h 2.9 km/h 68 % 0.0 mm open2300-1.11 W/m2
08:11 21.0 °C 14.4 °C 1013.1 hPa Calm   2.3 km/h 66 % 0.0 mm open2300-1.11 W/m2
09:12 20.2 °C 13.4 °C 1013.1 hPa Calm   3.4 km/h 65 % 0.0 mm open2300-1.11 W/m2
10:11 21.8 °C 15.6 °C 1013.4 hPa SE 6.4 km/h 6.4 km/h 68 % 0.0 mm open2300-1.11 W/m2
11:11 25.1 °C 18.3 °C 1013.4 hPa SE 5.1 km/h 9.3 km/h 66 % 0.0 mm open2300-1.11 W/m2
12:11 26.2 °C 18.8 °C 1013.4 hPa South 4.7 km/h 10.3 km/h 64 % 0.0 mm open2300-1.11 W/m2
13:11 26.1 °C 18.5 °C 1013.4 hPa ESE 9.3 km/h 12.7 km/h 63 % 0.0 mm open2300-1.11 W/m2
14:11 26.0 °C 18.7 °C 1013.1 hPa South 5.1 km/h 5.1 km/h 64 % 0.0 mm open2300-1.11 W/m2
15:11 25.5 °C 18.4 °C 1013.1 hPa SSE 5.6 km/h 14 km/h 65 % 0.0 mm open2300-1.11 W/m2
16:10 25.0 °C 18.2 °C 1013.1 hPa SSE 6.4 km/h 17.9 km/h 66 % 0.0 mm open2300-1.11 W/m2
17:10 24.4 °C 17.6 °C 1012.4 hPa Calm   14.5 km/h 66 % 0.0 mm open2300-1.11 W/m2
18:10 23.9 °C 17.4 °C 1011.4 hPa Calm   4.2 km/h 67 % 0.0 mm open2300-1.11 W/m2
19:10 23.5 °C 17.0 °C 1010.7 hPa Calm   2.9 km/h 67 % 0.0 mm open2300-1.11 W/m2
20:10 22.6 °C 16.9 °C 1011.7 hPa Calm   5.6 km/h 70 % 0.0 mm open2300-1.11 W/m2
21:10 21.6 °C 16.6 °C 1012.1 hPa Calm     73 % 0.0 mm open2300-1.11 W/m2
22:10 20.6 °C 16.0 °C 1012.8 hPa NW 2.3 km/h 2.3 km/h 75 % 0.0 mm open2300-1.11 W/m2
23:10 19.9 °C 15.3 °C 1012.8 hPa Calm     75 % 0.0 mm open2300-1.11 W/m2
Observations météo à CASSIS
WU-History script by Weather Underground - 1 mb